Time;durP1;ratioP1;P1;durP2;ratioP2;P2;SDS_P1;SDS_P2;PMS_P1;PMS_P2;Temp;Humidity;BMP_temperature;BMP_pressure;BME280_temperature;BME280_humidity;BME280_pressure;Samples;Min_cycle;Max_cycle;Signal;HPM_P1;HPM_P2
2022/05/16 00:02:34;;;;;;;3.40;3.10;;;;;;;11.19;79.82;97877.81;6233981;28;20226;-72
2022/05/16 00:05:36;;;;;;;3.17;2.87;;;;;;;11.15;80.27;97879.06;6253428;28;20218;-72
2022/05/16 00:08:38;;;;;;;3.30;3.00;;;;;;;11.13;80.37;97882.78;6254119;28;20717;-72
2022/05/16 00:11:40;;;;;;;7.20;3.13;;;;;;;11.10;80.50;97875.91;6252479;28;20767;-71
2022/05/16 00:14:44;;;;;;;3.33;2.93;;;;;;;11.13;80.34;97877.47;6254028;28;20304;-72
2022/05/16 00:17:47;;;;;;;3.13;2.83;;;;;;;11.13;80.07;97880.13;6253428;28;20345;-72
2022/05/16 00:20:49;;;;;;;6.73;3.03;;;;;;;11.12;79.87;97881.94;6253527;28;20314;-71
2022/05/16 00:23:51;;;;;;;3.90;2.93;;;;;;;11.10;80.19;97881.19;6253272;28;20232;-71
2022/05/16 00:26:54;;;;;;;5.57;3.50;;;;;;;11.08;80.50;97875.19;6234923;28;20229;-72
2022/05/16 00:29:56;;;;;;;3.53;2.70;;;;;;;11.03;80.58;97880.84;6252024;28;20790;-72
2022/05/16 00:32:58;;;;;;;6.43;3.40;;;;;;;10.97;80.90;97868.16;6227440;28;20231;-72
2022/05/16 00:36:00;;;;;;;6.70;3.40;;;;;;;10.95;80.85;97871.88;6254027;28;20229;-72
2022/05/16 00:39:02;;;;;;;3.33;3.00;;;;;;;10.93;81.53;97871.13;6252387;28;20258;-71
2022/05/16 00:42:04;;;;;;;3.90;3.00;;;;;;;10.88;80.95;97866.22;6251024;28;20359;-71
2022/05/16 00:45:11;;;;;;;6.13;3.10;;;;;;;10.86;81.42;97873.44;6252849;28;20229;-71
2022/05/16 00:48:13;;;;;;;3.23;2.93;;;;;;;10.83;81.25;97864.91;6226934;28;20214;-72
2022/05/16 00:51:22;;;;;;;4.13;3.17;;;;;;;10.81;81.71;97861.53;6236432;28;20335;-71
2022/05/16 00:54:29;;;;;;;3.37;3.07;;;;;;;10.77;81.50;97868.88;6235198;28;20307;-71
2022/05/16 00:57:38;;;;;;;3.20;2.93;;;;;;;10.77;81.23;97865.38;6253862;28;20311;-72
2022/05/16 01:04:56;;;;;;;5.03;3.63;;;;;;;10.72;82.07;97866.56;6207744;28;20569;-72
2022/05/16 01:08:04;;;;;;;5.03;2.97;;;;;;;10.71;82.03;97866.69;6229426;28;20225;-72
2022/05/16 01:11:10;;;;;;;4.43;3.33;;;;;;;10.71;81.67;97864.91;6227561;28;20241;-72
2022/05/16 01:14:51;;;;;;;3.23;2.93;;;;;;;10.68;82.16;97866.94;6208625;28;20320;-72
2022/05/16 01:17:54;;;;;;;4.93;3.07;;;;;;;10.64;82.05;97862.84;6186596;28;20781;-72
2022/05/16 01:21:18;;;;;;;5.80;3.47;;;;;;;10.68;81.83;97864.31;6228018;28;20234;-72
2022/05/16 01:24:20;;;;;;;4.60;3.40;;;;;;;10.65;82.12;97867.19;6209872;28;21748;-72
2022/05/16 01:27:22;;;;;;;5.17;3.40;;;;;;;10.63;82.23;97869.09;6210334;28;20523;-72
2022/05/16 01:30:29;;;;;;;6.03;3.50;;;;;;;10.65;82.10;97865.38;6228736;28;20320;-72
2022/05/16 01:33:31;;;;;;;3.97;3.50;;;;;;;10.65;82.09;97875.09;6227581;28;20238;-72
2022/05/16 01:36:33;;;;;;;3.83;3.33;;;;;;;10.61;81.72;97873.63;6227876;28;20335;-71
2022/05/16 01:39:36;;;;;;;3.93;3.30;;;;;;;10.57;82.58;97872.22;6214883;28;20343;-72
2022/05/16 01:42:38;;;;;;;3.53;3.23;;;;;;;10.55;82.00;97871.50;6232052;28;20234;-72
2022/05/16 01:45:42;;;;;;;3.87;3.30;;;;;;;10.49;82.78;97877.22;6214622;28;20248;-72
2022/05/16 01:48:45;;;;;;;4.10;3.30;;;;;;;10.44;83.44;97869.66;6232261;28;20757;-72
2022/05/16 01:51:47;;;;;;;3.87;3.33;;;;;;;10.40;82.68;97862.09;6214561;28;20245;-72
2022/05/16 01:54:50;;;;;;;7.00;3.40;;;;;;;10.38;83.29;97870.16;6230350;28;20244;-72
2022/05/16 01:57:52;;;;;;;4.83;3.23;;;;;;;10.38;83.53;97864.88;6231562;28;20235;-72
2022/05/16 02:00:55;;;;;;;5.63;3.30;;;;;;;10.37;83.65;97860.56;6231015;28;20443;-71
2022/05/16 02:03:57;;;;;;;6.47;3.97;;;;;;;10.35;83.13;97865.09;6231542;28;20234;-72
2022/05/16 02:06:59;;;;;;;4.03;3.60;;;;;;;10.33;83.38;97872.28;6231406;28;20258;-72
2022/05/16 02:10:02;;;;;;;3.90;3.43;;;;;;;10.32;83.36;97867.97;6231878;28;20232;-71
2022/05/16 02:13:05;;;;;;;4.10;3.67;;;;;;;10.30;83.58;97876.00;6214008;28;20241;-72
2022/05/16 02:16:08;;;;;;;6.33;3.30;;;;;;;10.31;83.17;97872.41;6231532;28;20707;-72
2022/05/16 02:19:11;;;;;;;5.43;3.40;;;;;;;10.29;83.29;97878.75;6231770;28;20236;-72
2022/05/16 02:25:37;;;;;;;4.73;3.57;;;;;;;10.23;83.09;97877.41;6231008;28;20307;-71
2022/05/16 02:28:39;;;;;;;4.90;3.17;;;;;;;10.23;83.13;97877.41;6230503;28;20364;-72
2022/05/16 02:31:41;;;;;;;5.20;3.20;;;;;;;10.20;83.65;97875.00;6230503;28;20236;-72
2022/05/16 02:34:44;;;;;;;4.80;3.23;;;;;;;10.15;83.19;97879.78;6231096;28;20366;-71
2022/05/16 02:37:47;;;;;;;4.07;3.30;;;;;;;10.12;83.64;97874.72;6230803;28;20276;-72
2022/05/16 02:40:49;;;;;;;4.30;3.80;;;;;;;10.11;83.14;97880.94;6230424;28;20242;-72
2022/05/16 02:43:51;;;;;;;4.53;3.40;;;;;;;10.08;83.86;97872.44;6230945;28;20742;-72
2022/05/16 02:46:53;;;;;;;6.17;3.60;;;;;;;10.04;83.65;97877.09;6230466;28;20298;-72
2022/05/16 02:49:56;;;;;;;8.03;3.40;;;;;;;10.03;84.05;97871.94;6229705;28;20601;-72
2022/05/16 02:52:58;;;;;;;4.97;3.37;;;;;;;10.05;84.16;97870.88;6196459;28;20239;-72
2022/05/16 02:56:00;;;;;;;3.37;3.10;;;;;;;10.07;84.15;97871.59;6212881;28;20290;-71
2022/05/16 02:59:03;;;;;;;6.33;3.40;;;;;;;10.04;83.81;97879.72;6229618;28;20240;-72
2022/05/16 03:02:09;;;;;;;4.37;3.37;;;;;;;10.00;84.30;97876.47;6229996;28;20219;-72
2022/05/16 03:05:11;;;;;;;5.87;3.63;;;;;;;9.94;83.93;97884.84;6230781;28;20232;-72
2022/05/16 03:08:14;;;;;;;6.07;3.40;;;;;;;9.93;84.15;97879.69;6230725;28;20240;-72
2022/05/16 03:11:16;;;;;;;3.73;3.40;;;;;;;9.91;84.34;97879.81;6230180;28;20742;-72
2022/05/16 03:14:19;;;;;;;4.43;3.60;;;;;;;9.90;84.30;97880.75;6212099;28;20270;-72
2022/05/16 03:17:23;;;;;;;4.70;3.53;;;;;;;9.91;84.56;97882.44;6229913;28;20326;-72
2022/05/16 03:20:25;;;;;;;5.30;3.60;;;;;;;9.93;84.67;97880.53;6229830;28;20219;-72
2022/05/16 03:23:27;;;;;;;5.30;3.83;;;;;;;9.93;84.35;97883.16;6228446;28;20228;-72
2022/05/16 03:26:30;;;;;;;4.67;3.80;;;;;;;9.90;84.52;97883.38;6229467;28;20228;-71
2022/05/16 03:29:32;;;;;;;3.70;3.40;;;;;;;9.90;84.70;97878.13;6213037;28;20704;-72
2022/05/16 03:32:34;;;;;;;4.10;3.67;;;;;;;9.89;84.00;97876.44;6228855;28;20390;-72
2022/05/16 03:35:36;;;;;;;5.27;3.83;;;;;;;9.88;84.50;97887.13;6229637;28;20238;-72
2022/05/16 03:41:59;;;;;;;3.97;3.57;;;;;;;9.85;84.32;97897.88;6229441;28;20236;-72
2022/05/16 03:45:04;;;;;;;5.47;4.10;;;;;;;9.87;84.29;97890.69;6211153;28;20236;-72
2022/05/16 03:48:07;;;;;;;4.13;3.73;;;;;;;9.87;85.13;97885.44;6221434;28;20223;-72
2022/05/16 03:51:12;;;;;;;6.83;4.37;;;;;;;9.88;85.46;97887.13;6230415;28;20231;-71
2022/05/16 03:54:17;;;;;;;4.27;3.50;;;;;;;9.90;85.54;97886.03;6230424;28;20219;-72
2022/05/16 03:57:21;;;;;;;4.23;3.40;;;;;;;9.97;84.80;97889.91;6228862;28;20310;-72
2022/05/16 04:00:23;;;;;;;4.13;3.73;;;;;;;10.03;84.72;97887.75;6228585;28;20318;-72
2022/05/16 04:03:27;;;;;;;5.50;4.20;;;;;;;10.05;84.93;97888.47;6228620;28;20274;-72
2022/05/16 04:06:29;;;;;;;6.03;4.13;;;;;;;10.05;84.48;97894.59;6210378;28;20228;-72
2022/05/16 04:09:31;;;;;;;5.33;4.00;;;;;;;10.07;85.35;97897.13;6228510;28;20333;-73
2022/05/16 04:12:34;;;;;;;6.23;4.27;;;;;;;10.09;85.33;97890.75;6210879;28;20225;-72
2022/05/16 04:15:37;;;;;;;5.07;3.90;;;;;;;10.14;84.56;97891.28;6211433;28;20220;-72
2022/05/16 04:18:40;;;;;;;4.80;4.10;;;;;;;10.17;84.21;97896.31;6229125;28;20604;-72
2022/05/16 04:21:42;;;;;;;4.40;3.63;;;;;;;10.22;84.29;97896.00;6228501;28;20708;-73
2022/05/16 04:24:44;;;;;;;5.10;4.60;;;;;;;10.26;84.42;97898.31;6227244;28;20293;-73
2022/05/16 04:27:46;;;;;;;4.13;3.80;;;;;;;10.31;85.03;97900.56;6229148;28;20243;-72
2022/05/16 04:30:49;;;;;;;4.10;3.57;;;;;;;10.35;84.52;97904.69;6228465;28;20298;-72
2022/05/16 04:33:51;;;;;;;5.97;4.80;;;;;;;10.40;84.51;97909.59;6210447;28;20311;-72
2022/05/16 04:36:53;;;;;;;4.90;4.50;;;;;;;10.44;84.61;97908.41;6227988;28;20226;-72
2022/05/16 04:39:55;;;;;;;5.00;4.17;;;;;;;10.47;84.81;97909.03;6228738;28;20606;-72
2022/05/16 04:42:58;;;;;;;4.80;4.37;;;;;;;10.52;84.15;97911.28;6229087;28;20224;-72
2022/05/16 04:46:04;;;;;;;5.03;4.53;;;;;;;10.58;84.85;97921.41;6227924;28;20594;-72
2022/05/16 04:49:06;;;;;;;5.27;4.67;;;;;;;10.64;84.20;97916.47;6203053;28;20233;-72
2022/05/16 04:52:11;;;;;;;5.23;4.73;;;;;;;10.72;84.79;97929.94;6210270;28;20229;-72
2022/05/16 04:55:14;;;;;;;5.77;4.53;;;;;;;10.85;84.25;97921.06;6211279;28;20248;-72
2022/05/16 04:58:17;;;;;;;5.27;4.57;;;;;;;10.94;83.73;97913.28;6211582;28;20746;-72
2022/05/16 05:01:19;;;;;;;4.80;4.30;;;;;;;11.01;83.69;97922.38;6202878;28;20232;-71
2022/05/16 05:04:21;;;;;;;5.80;5.07;;;;;;;11.12;84.10;97921.53;6209353;28;20319;-72
2022/05/16 05:07:24;;;;;;;5.00;4.50;;;;;;;11.21;83.81;97928.75;6245003;28;20650;-72
2022/05/16 05:17:10;;;;;;;4.43;4.03;;;;;;;11.45;83.60;97923.31;6257146;28;20244;-71
2022/05/16 05:20:14;;;;;;;7.70;4.80;;;;;;;11.51;83.98;97914.91;6258379;28;20892;-71
2022/05/16 05:23:16;;;;;;;5.07;4.60;;;;;;;11.53;83.59;97915.63;6256345;28;20245;-72
2022/05/16 05:26:19;;;;;;;6.43;4.50;;;;;;;11.60;83.76;97915.97;6258309;28;20230;-71
2022/05/16 05:29:22;;;;;;;7.33;4.20;;;;;;;11.64;83.28;97920.88;6257018;28;20339;-72
2022/05/16 05:32:25;;;;;;;6.33;4.60;;;;;;;11.69;83.31;97918.69;6215657;28;20483;-72
2022/05/16 05:35:29;;;;;;;5.53;4.50;;;;;;;11.81;83.20;97924.81;6252975;28;20672;-71
2022/05/16 05:38:32;;;;;;;5.33;4.13;;;;;;;11.89;82.67;97919.75;6238667;28;20252;-71
2022/05/16 05:41:34;;;;;;;7.43;5.17;;;;;;;11.95;82.77;97921.06;6256916;28;20238;-72
2022/05/16 05:44:36;;;;;;;5.50;4.40;;;;;;;11.98;82.86;97924.28;6254857;28;20310;-72
2022/05/16 05:47:39;;;;;;;10.33;5.00;;;;;;;12.05;82.62;97917.53;6256559;28;20316;-71
2022/05/16 05:50:41;;;;;;;6.87;4.70;;;;;;;12.13;82.87;97917.75;6255670;28;20262;-72
2022/05/16 05:53:44;;;;;;;7.27;4.57;;;;;;;12.21;82.80;97917.09;6238912;28;20598;-71
2022/05/16 05:56:46;;;;;;;5.73;4.63;;;;;;;12.29;82.34;97922.59;6254602;28;20248;-72
2022/05/16 05:59:48;;;;;;;4.93;4.53;;;;;;;12.40;82.63;97919.88;6230437;28;20234;-72
2022/05/16 06:02:50;;;;;;;5.27;4.30;;;;;;;12.51;81.83;97925.13;6251399;28;20246;-72
2022/05/16 06:05:54;;;;;;;6.80;4.37;;;;;;;12.60;82.07;97918.22;6255715;28;20232;-72
2022/05/16 06:08:56;;;;;;;5.63;4.50;;;;;;;12.72;81.58;97927.78;6256031;28;20239;-71
2022/05/16 06:11:59;;;;;;;4.43;4.00;;;;;;;12.81;81.24;97932.28;6237863;28;20744;-72
2022/05/16 06:15:01;;;;;;;5.83;4.70;;;;;;;12.92;81.58;97926.91;6255931;28;20285;-71
2022/05/16 06:18:03;;;;;;;6.60;4.43;;;;;;;13.05;80.84;97918.75;6255271;28;20701;-72
2022/05/16 06:21:06;;;;;;;7.00;3.83;;;;;;;13.23;80.79;97930.44;6255370;28;20289;-72
2022/05/16 06:27:31;;;;;;;7.47;4.10;;;;;;;13.57;79.55;97935.44;6197771;28;20308;-72
2022/05/16 06:30:36;;;;;;;4.47;3.90;;;;;;;13.76;79.23;97935.47;6252170;28;20696;-72
2022/05/16 06:33:38;;;;;;;9.57;4.20;;;;;;;14.03;77.74;97930.34;6260089;28;20225;-72
2022/05/16 06:36:40;;;;;;;5.40;4.00;;;;;;;14.25;77.35;97936.38;6260581;28;20765;-72
2022/05/16 06:39:42;;;;;;;5.20;3.80;;;;;;;14.54;76.47;97939.88;6259330;28;20239;-72
2022/05/16 06:42:45;;;;;;;6.57;3.67;;;;;;;15.00;73.93;97938.22;6242111;28;20231;-72
2022/05/16 06:45:48;;;;;;;5.30;3.07;;;;;;;15.42;72.07;97931.50;6242866;28;20281;-71
2022/05/16 06:48:50;;;;;;;4.43;3.17;;;;;;;15.83;70.87;97930.19;6237344;28;20223;-72
2022/05/16 06:51:52;;;;;;;5.57;4.00;;;;;;;16.27;69.52;97924.94;6236930;28;20288;-72
2022/05/16 06:54:55;;;;;;;4.00;2.87;;;;;;;16.60;67.67;97929.56;6252888;28;20218;-72
2022/05/16 06:57:57;;;;;;;3.93;3.07;;;;;;;16.99;66.84;97923.88;6253826;28;20577;-72
2022/05/16 07:00:59;;;;;;;3.70;2.80;;;;;;;17.39;65.13;97919.75;6236069;28;20219;-72
2022/05/16 07:04:03;;;;;;;8.40;2.97;;;;;;;17.73;62.92;97922.41;6236736;28;20231;-72
2022/05/16 07:07:08;;;;;;;3.60;2.60;;;;;;;18.02;61.32;97929.00;6236046;28;20216;-72
2022/05/16 07:10:11;;;;;;;4.83;3.17;;;;;;;18.23;54.68;97927.72;6254269;28;20223;-77
2022/05/16 07:13:13;;;;;;;4.80;2.97;;;;;;;18.67;55.77;97936.25;6254398;28;20219;-71
2022/05/16 07:16:15;;;;;;;5.03;2.70;;;;;;;19.01;55.64;97925.38;6253785;28;20227;-71
2022/05/16 07:19:18;;;;;;;3.20;2.30;;;;;;;19.31;54.87;97932.66;6253753;28;20702;-71
2022/05/16 07:22:24;;;;;;;5.23;2.77;;;;;;;19.61;54.32;97928.41;6255655;28;20231;-71
2022/05/16 07:25:27;;;;;;;4.27;2.30;;;;;;;19.89;53.18;97920.72;6254192;28;20231;-71
2022/05/16 07:28:30;;;;;;;5.93;2.70;;;;;;;20.07;49.97;97923.13;6251815;28;20238;-72
2022/05/16 07:31:32;;;;;;;7.03;2.50;;;;;;;20.47;50.80;97919.38;6252851;28;20248;-72
2022/05/16 07:34:34;;;;;;;6.57;2.50;;;;;;;20.78;48.03;97927.31;6218727;28;20238;-72
2022/05/16 07:37:37;;;;;;;5.23;2.50;;;;;;;20.72;47.55;97926.22;6253244;28;20239;-72
2022/05/16 07:40:39;;;;;;;6.10;2.80;;;;;;;21.22;47.63;97930.97;6253957;28;20223;-72
2022/05/16 07:43:42;;;;;;;3.80;2.40;;;;;;;21.67;46.33;97937.97;6253912;28;20231;-73
2022/05/16 07:46:44;;;;;;;3.80;2.20;;;;;;;21.93;45.81;97934.81;6253288;28;20302;-73
2022/05/16 07:49:46;;;;;;;3.80;2.50;;;;;;;22.25;45.59;97928.19;6227901;28;20238;-71
2022/05/16 07:52:48;;;;;;;6.70;2.67;;;;;;;22.15;41.94;97926.81;6245941;28;20231;-71
2022/05/16 07:55:53;;;;;;;3.20;2.37;;;;;;;22.39;42.25;97935.34;6252718;28;20227;-71
2022/05/16 07:58:56;;;;;;;2.87;2.07;;;;;;;22.93;42.57;97928.63;6227219;28;20235;-71
2022/05/16 08:01:58;;;;;;;4.17;2.37;;;;;;;23.34;41.32;97929.53;6234900;28;20257;-72
2022/05/16 08:05:01;;;;;;;4.17;2.83;;;;;;;23.37;37.70;97923.75;6252792;28;20226;-71
2022/05/16 08:11:24;;;;;;;4.07;2.60;;;;;;;23.71;39.68;97922.09;6253398;28;20312;-71
2022/05/16 08:14:26;;;;;;;4.97;2.30;;;;;;;23.71;37.63;97922.94;6253662;28;20222;-72
2022/05/16 08:17:29;;;;;;;4.17;2.43;;;;;;;24.04;37.37;97917.66;6252863;28;20231;-71
2022/05/16 08:20:33;;;;;;;3.60;2.37;;;;;;;24.13;39.05;97929.09;6251600;28;20227;-72
2022/05/16 08:23:35;;;;;;;3.57;2.17;;;;;;;24.54;39.14;97931.72;6253037;28;20242;-72
2022/05/16 08:26:37;;;;;;;4.97;2.23;;;;;;;24.77;37.52;97936.72;6252643;28;20234;-72
2022/05/16 08:29:40;;;;;;;6.60;2.97;;;;;;;24.27;35.13;97931.66;6253254;28;20230;-71
2022/05/16 08:32:43;;;;;;;4.57;2.63;;;;;;;24.23;36.13;97927.72;6234915;28;20245;-72
2022/05/16 08:39:52;;;;;;;4.23;2.50;;;;;;;24.93;37.75;97929.09;6234396;28;20258;-72
2022/05/16 08:42:47;;;;;;;3.97;2.03;;;;;;;25.61;37.80;97923.38;6252626;28;20226;-72
2022/05/16 08:46:10;;;;;;;5.80;2.20;;;;;;;26.01;35.85;97924.91;6260328;28;20238;-72
2022/05/16 08:49:20;;;;;;;4.10;2.63;;;;;;;26.27;35.69;97931.25;6226970;28;20244;-72
2022/05/16 08:52:34;;;;;;;4.03;2.38;;;;;;;26.47;35.76;97929.25;6233214;28;20227;-71
2022/05/16 08:55:47;;;;;;;7.25;2.53;;;;;;;26.63;33.59;97930.63;6256057;28;20297;-72
2022/05/16 08:58:58;;;;;;;4.78;2.80;;;;;;;26.31;34.59;97930.59;6255329;28;20235;-72
2022/05/16 09:02:25;;;;;;;3.17;2.20;;;;;;;26.77;34.85;97937.59;6258815;28;20223;-72
2022/05/16 09:05:51;;;;;;;5.22;2.65;;;;;;;27.33;30.43;97936.72;6251848;28;20237;-72
2022/05/16 09:09:06;;;;;;;8.38;2.90;;;;;;;27.02;31.32;97930.34;6257264;28;20635;-71
2022/05/16 09:12:25;;;;;;;8.60;2.17;;;;;;;26.66;31.44;97928.28;6256937;28;20231;-72
2022/05/16 09:15:30;;;;;;;3.67;2.45;;;;;;;26.99;32.86;97925.34;6257783;28;20223;-72
2022/05/16 09:18:51;;;;;;;4.90;2.72;;;;;;;26.87;31.99;97921.66;6256818;28;20322;-73
2022/05/16 09:22:02;;;;;;;5.22;2.50;;;;;;;27.36;31.41;97923.53;6238901;28;20238;-72
2022/05/16 09:25:28;;;;;;;5.38;2.70;;;;;;;27.02;31.25;97932.22;6256654;28;20231;-72
2022/05/16 09:28:34;;;;;;;5.90;2.47;;;;;;;26.76;30.97;97925.09;6256722;28;20258;-72
2022/05/16 09:31:42;;;;;;;5.07;2.42;;;;;;;27.07;31.18;97918.81;6257063;28;20233;-71
2022/05/16 09:34:45;;;;;;;3.42;2.08;;;;;;;27.69;33.49;97923.22;6256086;28;20223;-72
2022/05/16 09:37:47;;;;;;;3.55;2.22;;;;;;;27.76;32.89;97925.84;6256793;28;20241;-72
2022/05/16 09:41:09;;;;;;;5.22;2.88;;;;;;;28.18;32.10;97914.09;6256640;28;20357;-72
2022/05/16 09:44:54;;;;;;;3.50;2.10;;;;;;;28.27;29.29;97914.59;6256619;28;20228;-73
2022/05/16 09:47:58;;;;;;;4.63;2.63;;;;;;;28.18;31.49;97910.53;6245129;28;20231;-72
2022/05/16 09:51:03;;;;;;;5.55;3.00;;;;;;;27.98;30.81;97916.19;6248087;28;20234;-72
2022/05/16 09:54:22;;;;;;;5.60;2.78;;;;;;;28.07;29.88;97912.09;6256112;28;20226;-72
2022/05/16 09:57:25;;;;;;;4.45;2.80;;;;;;;27.95;31.89;97915.84;6254906;28;20232;-72
2022/05/16 10:00:38;;;;;;;8.40;2.85;;;;;;;28.41;30.48;97912.53;6255767;28;20292;-73
2022/05/16 10:03:48;;;;;;;4.80;2.40;;;;;;;28.44;30.25;97914.78;6254508;28;20227;-71
2022/05/16 10:07:03;;;;;;;5.00;2.50;;;;;;;28.03;29.63;97912.81;6256550;28;20694;-72
2022/05/16 10:10:09;;;;;;;5.13;2.83;;;;;;;27.81;32.24;97907.84;6256621;28;20293;-72
2022/05/16 10:13:12;;;;;;;5.90;2.83;;;;;;;27.34;31.77;97901.28;6254767;28;20231;-71
2022/05/16 10:16:18;;;;;;;4.55;2.25;;;;;;;27.84;33.75;97904.69;6255143;28;20239;-72
2022/05/16 10:19:26;;;;;;;4.70;2.38;;;;;;;28.84;30.90;97896.84;6238005;28;20239;-72
2022/05/16 10:22:31;;;;;;;4.00;2.28;;;;;;;29.12;29.33;97889.88;6237812;28;20702;-70
2022/05/16 10:25:58;;;;;;;4.03;2.28;;;;;;;29.25;28.76;97892.34;6254821;28;20300;-70
2022/05/16 10:29:13;;;;;;;6.55;2.90;;;;;;;28.76;30.69;97888.97;6255213;28;20626;-71
2022/05/16 10:36:26;;;;;;;4.82;2.60;;;;;;;28.75;30.27;97879.16;6255709;28;20215;-71
2022/05/16 10:39:29;;;;;;;5.10;2.78;;;;;;;29.72;30.63;97888.53;6254222;28;20629;-72
2022/05/16 10:43:02;;;;;;;6.47;2.90;;;;;;;29.54;29.15;97883.25;6237339;28;20258;-69
2022/05/16 10:46:16;;;;;;;5.00;2.72;;;;;;;29.67;28.45;97882.16;6232211;28;20227;-73
2022/05/16 10:49:33;;;;;;;3.80;2.88;;;;;;;29.91;29.25;97872.88;6230381;28;20232;-72
2022/05/16 10:52:58;;;;;;;5.22;2.88;;;;;;;30.41;29.26;97883.94;6228485;28;20260;-73
2022/05/16 10:56:23;;;;;;;6.32;2.95;;;;;;;30.74;27.40;97874.19;6255194;28;20289;-72
2022/05/16 10:59:38;;;;;;;6.28;2.70;;;;;;;30.91;28.45;97872.28;6254628;28;20238;-72
2022/05/16 11:03:09;;;;;;;9.80;3.13;;;;;;;30.33;28.97;97867.16;6254384;28;20722;-72
2022/05/16 11:06:41;;;;;;;5.15;2.53;;;;;;;30.52;29.09;97867.78;6254545;28;20591;-72
2022/05/16 11:09:50;;;;;;;4.75;2.70;;;;;;;31.16;28.49;97855.50;6235048;28;20309;-72
2022/05/16 11:13:20;;;;;;;4.97;2.42;;;;;;;31.83;29.36;97858.06;6237322;28;20333;-72
2022/05/16 11:16:33;;;;;;;6.15;2.45;;;;;;;32.74;27.77;97845.38;6255032;28;20230;-72
2022/05/16 11:20:04;;;;;;;4.18;2.60;;;;;;;33.39;24.98;97852.41;6254422;28;20317;-72
2022/05/16 11:23:31;;;;;;;5.30;3.00;;;;;;;33.02;24.77;97848.88;6236402;28;20227;-71
2022/05/16 11:27:02;;;;;;;5.65;2.65;;;;;;;32.25;25.78;97839.97;6253998;28;20223;-71
2022/05/16 11:30:06;;;;;;;5.60;2.70;;;;;;;31.35;27.62;97845.13;6254033;28;20242;-71
2022/05/16 11:33:32;;;;;;;4.53;2.42;;;;;;;31.49;29.99;97849.97;6253279;28;20230;-72
2022/05/16 11:36:49;;;;;;;6.55;2.58;;;;;;;30.96;29.50;97844.25;6237016;28;20699;-71
2022/05/16 11:40:04;;;;;;;3.78;2.60;;;;;;;31.26;29.29;97841.16;6253391;28;20236;-71
2022/05/16 11:43:27;;;;;;;5.68;2.80;;;;;;;31.45;28.95;97829.72;6253303;28;20232;-71
2022/05/16 11:46:39;;;;;;;5.13;2.85;;;;;;;31.26;27.46;97831.09;6254230;28;20270;-71
2022/05/16 11:50:28;;;;;;;4.75;2.42;;;;;;;31.78;28.75;97823.34;6254537;28;20687;-71
2022/05/16 11:53:36;;;;;;;4.43;2.63;;;;;;;32.28;29.41;97821.41;6228780;28;20231;-71
2022/05/16 12:03:41;;;;;;;5.55;3.00;;;;;;;33.32;26.11;97806.13;6253183;28;20234;-72
2022/05/16 12:06:58;;;;;;;7.53;3.10;;;;;;;32.97;25.51;97800.41;6258733;28;20226;-72
2022/05/16 12:10:15;;;;;;;4.32;2.55;;;;;;;33.16;26.14;97807.09;6253273;28;20306;-72
2022/05/16 12:13:28;;;;;;;3.40;2.30;;;;;;;31.42;26.25;97807.59;6236248;28;20605;-70
2022/05/16 12:16:36;;;;;;;4.88;2.67;;;;;;;31.12;26.24;97799.81;6252949;28;20223;-72
2022/05/16 12:19:41;;;;;;;3.20;2.50;;;;;;;31.17;27.03;97806.16;6253271;28;20231;-71
2022/05/16 12:22:47;;;;;;;4.90;2.17;;;;;;;31.74;27.61;97794.09;6252572;28;20238;-71
2022/05/16 12:25:49;;;;;;;4.75;2.45;;;;;;;32.25;26.86;97793.53;6228036;28;20231;-71
2022/05/16 12:29:10;;;;;;;3.35;2.40;;;;;;;32.43;25.97;97786.88;6250026;28;20607;-72
2022/05/16 12:32:42;;;;;;;2.70;2.38;;;;;;;32.56;25.31;97786.41;6252778;28;20223;-72
2022/05/16 12:35:46;;;;;;;3.08;2.50;;;;;;;33.10;25.49;97777.25;6235269;28;20239;-71
2022/05/16 12:38:57;;;;;;;4.25;2.30;;;;;;;33.81;25.50;97763.91;6252668;28;20733;-72
2022/05/16 12:42:14;;;;;;;3.85;2.10;;;;;;;33.92;24.27;97762.84;6252063;28;20231;-72
2022/05/16 12:45:54;;;;;;;2.80;2.20;;;;;;;33.84;24.00;97761.44;6251677;28;20346;-71
2022/05/16 12:49:02;;;;;;;5.07;2.83;;;;;;;33.56;24.71;97754.50;6226815;28;20224;-72
2022/05/16 12:52:25;;;;;;;4.53;2.65;;;;;;;33.51;25.44;97754.50;6226282;28;20330;-72
2022/05/16 12:55:58;;;;;;;2.53;2.28;;;;;;;33.53;25.41;97743.28;6241884;28;20235;-71
2022/05/16 12:59:21;;;;;;;3.70;2.40;;;;;;;34.23;25.22;97756.31;6252266;28;20253;-71
2022/05/16 13:02:33;;;;;;;4.13;2.45;;;;;;;34.73;23.88;97751.94;6250960;28;20231;-72
2022/05/16 13:05:42;;;;;;;5.68;2.63;;;;;;;35.17;21.67;97749.38;6227756;28;20239;-71
2022/05/16 13:09:27;;;;;;;5.15;2.58;;;;;;;35.34;22.43;97740.84;6226688;28;20242;-72
2022/05/16 13:12:58;;;;;;;5.15;2.60;;;;;;;33.76;23.05;97739.25;6228871;28;20687;-71
2022/05/16 13:16:22;;;;;;;4.18;2.75;;;;;;;33.09;24.52;97735.41;6202532;28;20247;-71
2022/05/16 13:19:41;;;;;;;4.72;2.72;;;;;;;33.32;24.43;97736.91;6230112;28;20724;-72
2022/05/16 13:22:48;;;;;;;4.88;2.45;;;;;;;34.13;24.74;97726.16;6228206;28;20330;-71
2022/05/16 13:29:23;;;;;;;4.78;2.75;;;;;;;34.19;25.26;97716.84;6228112;28;20270;-71
2022/05/16 13:32:29;;;;;;;5.40;2.92;;;;;;;34.42;23.69;97720.97;6211656;28;20231;-72
2022/05/16 13:35:37;;;;;;;4.47;3.17;;;;;;;34.52;22.96;97720.97;6215079;28;20234;-72
2022/05/16 13:38:39;;;;;;;6.55;2.67;;;;;;;34.84;22.51;97706.13;6215184;28;21005;-71
2022/05/16 13:41:41;;;;;;;5.57;2.63;;;;;;;35.13;22.49;97707.97;6232967;28;20743;-72
2022/05/16 13:44:45;;;;;;;3.42;2.88;;;;;;;35.27;22.70;97710.13;6231764;28;20231;-72
2022/05/16 13:47:47;;;;;;;5.30;2.72;;;;;;;35.17;21.33;97699.97;6230918;28;20255;-70
2022/05/16 13:50:49;;;;;;;3.50;2.28;;;;;;;34.58;22.28;97697.91;6233150;28;20223;-72
2022/05/16 13:53:51;;;;;;;4.03;2.70;;;;;;;35.59;21.59;97701.44;6213516;28;20595;-73
2022/05/16 13:56:57;;;;;;;3.92;2.60;;;;;;;36.29;21.83;97704.84;6232360;28;20632;-71
2022/05/16 14:00:21;;;;;;;4.22;2.70;;;;;;;37.28;21.02;97706.84;6230575;28;20254;-71
2022/05/16 14:03:31;;;;;;;5.35;2.15;;;;;;;38.61;19.15;97695.50;6239894;28;20234;-72
2022/05/16 14:06:47;;;;;;;5.22;2.78;;;;;;;40.19;17.76;97698.53;6254595;28;20227;-72
2022/05/16 14:10:06;;;;;;;4.47;2.33;;;;;;;40.75;16.08;97678.56;6238314;28;20223;-72
2022/05/16 14:13:15;;;;;;;5.38;2.55;;;;;;;42.39;14.63;97684.44;6247669;28;20224;-72
2022/05/16 14:16:21;;;;;;;4.30;2.83;;;;;;;42.70;14.51;97679.44;6237472;28;20235;-72
2022/05/16 14:19:43;;;;;;;4.40;2.45;;;;;;;43.19;15.23;97679.94;6237518;28;20715;-71
2022/05/16 14:22:48;;;;;;;3.47;2.40;;;;;;;43.55;15.06;97675.75;6255919;28;20245;-72
2022/05/16 14:25:52;;;;;;;5.43;2.65;;;;;;;43.50;14.25;97681.53;6255529;28;20223;-71
2022/05/16 14:29:31;;;;;;;3.72;2.33;;;;;;;43.58;15.31;97675.94;6253573;28;20243;-71
2022/05/16 14:32:36;;;;;;;6.20;2.80;;;;;;;43.98;15.01;97669.91;6255659;28;20242;-72
2022/05/16 14:35:39;;;;;;;3.65;2.70;;;;;;;43.74;13.75;97665.00;6255541;28;20607;-72
2022/05/16 14:38:48;;;;;;;3.25;2.55;;;;;;;44.63;13.89;97669.09;6237617;28;20734;-72
2022/05/16 14:42:27;;;;;;;2.83;2.35;;;;;;;45.20;13.29;97663.53;6255462;28;20239;-72
2022/05/16 14:48:50;;;;;;;4.00;2.67;;;;;;;45.80;12.70;97661.78;6255167;28;20568;-71
2022/05/16 14:51:52;;;;;;;2.92;2.58;;;;;;;46.35;11.88;97659.38;6236807;28;20633;-71
2022/05/16 14:55:02;;;;;;;4.80;2.80;;;;;;;44.40;13.38;97656.78;6254819;28;20226;-72
2022/05/16 14:58:07;;;;;;;6.88;2.83;;;;;;;44.82;13.17;97647.09;6255565;28;20278;-71
2022/05/16 15:04:58;;;;;;;4.95;2.30;;;;;;;45.79;12.54;97648.19;6236073;28;20441;-72
2022/05/16 15:08:00;;;;;;;3.78;2.85;;;;;;;45.81;12.79;97649.47;6254824;28;20234;-72
2022/05/16 15:11:03;;;;;;;1.95;1.83;;;;;;;45.68;12.97;97647.06;6236649;28;20299;-72
2022/05/16 15:14:05;;;;;;;2.80;2.20;;;;;;;45.65;14.29;97647.75;6254004;28;20234;-72
2022/05/16 15:17:08;;;;;;;3.75;2.30;;;;;;;45.60;14.51;97656.41;6253574;28;20222;-71
2022/05/16 15:20:11;;;;;;;4.95;2.30;;;;;;;45.48;15.33;97657.19;6254062;28;20372;-71
2022/05/16 15:23:17;;;;;;;3.75;2.80;;;;;;;45.40;14.86;97652.56;6254208;28;20237;-72
2022/05/16 15:26:20;;;;;;;5.22;2.20;;;;;;;45.10;15.49;97652.00;6253491;28;20234;-72
2022/05/16 15:29:24;;;;;;;2.70;2.10;;;;;;;44.92;15.55;97650.59;6253882;28;20227;-71
2022/05/16 15:32:26;;;;;;;7.65;2.65;;;;;;;44.26;16.03;97657.03;6253594;28;20233;-72
2022/05/16 15:35:28;;;;;;;3.63;2.40;;;;;;;43.70;17.36;97656.56;6252871;28;20601;-71